Hayward, Wisconsin
Current Conditions -  °F | °C
As of 3:53 AM on Thursday 18 Dec 2014 (Local Time) from KHYR Reporting Station
Overcast Overcast  
Wind Chill: 20°   Ceiling: 1100
Heat Index: 20°   Visibility: 10mi
Dew Point: 16°   Wind: 3mph
Humidity: 85%   Direction: 10°N
Pressure: 30.29"   Gusts: NA
Location:  46.01°N, 91.48°W
Report Text: KHYR 180953Z AUTO 01003KT 10SM OVC011 M07/M09 A3029 RMK AO2 SLP279 T10671089
Loading
Personal Weather Stations






























Interactive Weather Map New forecast layout! Learn more

10-Day Weather Forecast

Advertisements
Track Severe Weather on mobile